Home PIREPS Pireps

Flight BEL3001

  • Submitted By: Vincent Fourni
  • Departure Airport: Bruxelles National (EBBR)
  • Arrival Airport: Athens Eleftherios Venizelos International Airport (LGAV)
  • Aircraft: A319-112 (OO-SSG)
  • Flight Time: 03.36
  • Date Submitted: 04/12/2018
  • Status: Accepted
Flight Details
Gross Revenue:
(123 load / € 284.00 per unit
€ 34,932.00
Fuel Cost:
(8500 fuel used @ 5.1 / unit)
€ 43,350.00

Additional Log Information:

View Log

Aircraft Used in flight is PMDG 737-800NGX Brussels Airlines Winglets
08:59 Brakes are On
09:04 Brakes are Released
09:06 Brakes are On
09:11 Brakes are Released
09:18 You Took off @ 181 Knots and Flaps at Position 3
Departure Weather
EBBR 040750Z 29005KT 9999 FEW030 BKN040 07/05 Q1019 NOSIGrn
09:18 Landing Gear Up @ 184 Knots and 440 Feet
09:22 Above FL100 you need to switch of the landing lights
12:16 Landing Gear Down @ 212 Knots and 2150 Feet
12:18 You Landed @ 145 Knots and with -350 Vertical Speed
Arrival Weather
LGAV 041050Z 03008KT 9999 FEW035 15/05 Q1012 NOSIGrn
12:18 Paused
12:19 Unpaused
12:19 Paused
12:23 Unpaused
12:23 Paused
12:23 Unpaused
12:23 Brakes are On
12:40 Brussels Bel-Track1.0.1.2

Route Map

Corporate About Us Our Team Vacancies Information Fleet Route Network Rules and Regulations Operations Flight Schedules Event Center Tours Partners IVAO Vatsim Acars dev FSCB

fb Users Online Belgium Piet Desimpelaere,
1 Pilot(s) and 128 Guest(s) Online
CMS by phpVMS - Design by Crazycreatives.com - Copyright © 2020 - Brussels Airlines Virtual